createdAt,value
2018-09-24T00:01:30.903Z,8.60
2018-09-24T00:04:04.870Z,8.60
2018-09-24T00:06:39.953Z,8.60
2018-09-24T00:09:13.837Z,8.60
2018-09-24T00:11:47.754Z,8.60
2018-09-24T00:14:21.688Z,8.60
2018-09-24T00:16:55.979Z,8.60
2018-09-24T00:19:30.631Z,8.50
2018-09-24T00:22:04.885Z,8.40
2018-09-24T00:24:39.299Z,8.50
2018-09-24T00:27:13.408Z,8.50
2018-09-24T00:29:47.774Z,8.50
2018-09-24T00:32:21.594Z,8.40
2018-09-24T00:34:55.623Z,8.40
2018-09-24T00:37:30.058Z,8.40
2018-09-24T00:40:03.908Z,8.40
2018-09-24T00:42:37.828Z,8.50
2018-09-24T00:45:11.824Z,8.40
2018-09-24T00:47:46.033Z,8.40
2018-09-24T00:50:19.848Z,8.40
2018-09-24T00:52:54.088Z,8.40
2018-09-24T00:55:28.438Z,8.40
2018-09-24T00:58:02.504Z,8.40
2018-09-24T01:00:36.395Z,8.40
2018-09-24T01:03:10.364Z,8.40
2018-09-24T01:05:44.576Z,8.40
2018-09-24T01:08:18.619Z,8.30
2018-09-24T01:10:52.779Z,8.30
2018-09-24T01:13:26.665Z,8.30
2018-09-24T01:16:00.760Z,8.30
2018-09-24T01:18:35.038Z,8.30
2018-09-24T01:21:09.148Z,8.30
2018-09-24T01:23:43.176Z,8.40
2018-09-24T01:26:17.132Z,8.40
2018-09-24T01:28:51.304Z,8.30
2018-09-24T01:31:25.770Z,8.40
2018-09-24T01:34:00.524Z,8.40
2018-09-24T01:36:34.611Z,8.40
2018-09-24T01:39:08.812Z,8.40
2018-09-24T01:41:42.734Z,8.40
2018-09-24T01:44:16.592Z,8.40
2018-09-24T01:46:51.406Z,8.30
2018-09-24T01:49:25.474Z,8.30
2018-09-24T01:51:59.492Z,8.20
2018-09-24T01:54:34.372Z,8.30
2018-09-24T01:57:14.593Z,8.20
2018-09-24T01:59:55.002Z,8.20
2018-09-24T02:02:28.972Z,8.20
2018-09-24T02:05:03.078Z,8.10
2018-09-24T02:07:37.048Z,8.10
2018-09-24T02:10:11.492Z,8.10
2018-09-24T02:12:45.692Z,8.10
2018-09-24T02:15:24.276Z,8.10
2018-09-24T02:17:58.062Z,8.10
2018-09-24T02:20:33.333Z,8.10
2018-09-24T02:23:08.294Z,8.00
2018-09-24T02:25:42.766Z,8.00
2018-09-24T02:28:16.995Z,8.00
2018-09-24T02:30:50.983Z,8.00
2018-09-24T02:33:25.327Z,7.90
2018-09-24T02:35:59.233Z,7.90
2018-09-24T02:38:38.097Z,7.90
2018-09-24T02:41:12.126Z,7.80
2018-09-24T02:43:46.859Z,7.80
2018-09-24T02:46:20.541Z,7.90
2018-09-24T02:48:58.928Z,7.80
2018-09-24T02:51:33.091Z,7.90
2018-09-24T02:54:07.571Z,7.80
2018-09-24T02:56:49.687Z,7.90
2018-09-24T02:59:23.954Z,7.90
2018-09-24T03:01:58.583Z,7.90
2018-09-24T03:04:32.728Z,7.90
2018-09-24T03:07:07.672Z,7.90
2018-09-24T03:09:41.708Z,7.90
2018-09-24T03:12:16.009Z,7.90
2018-09-24T03:14:50.086Z,7.90
2018-09-24T03:17:24.774Z,7.90
2018-09-24T03:19:59.916Z,7.90
2018-09-24T03:22:34.727Z,7.90
2018-09-24T03:25:12.483Z,7.90
2018-09-24T03:27:46.853Z,8.00
2018-09-24T03:30:21.587Z,7.90
2018-09-24T03:32:55.652Z,7.90
2018-09-24T03:35:29.757Z,7.90
2018-09-24T03:38:04.128Z,7.90
2018-09-24T03:40:38.084Z,7.90
2018-09-24T03:43:12.069Z,7.80
2018-09-24T03:45:46.944Z,7.80
2018-09-24T03:48:21.292Z,7.80
2018-09-24T03:50:55.942Z,7.80
2018-09-24T03:53:30.104Z,7.70
2018-09-24T03:56:04.038Z,7.80
2018-09-24T03:58:38.327Z,7.80
2018-09-24T04:01:12.714Z,7.70
2018-09-24T04:03:47.784Z,7.70
2018-09-24T04:06:27.526Z,7.70
2018-09-24T04:09:08.966Z,7.70
2018-09-24T04:11:48.327Z,7.60
2018-09-24T04:14:27.801Z,7.70
2018-09-24T04:17:07.888Z,7.70
2018-09-24T04:19:47.239Z,7.70
2018-09-24T04:22:27.371Z,7.60
2018-09-24T04:25:07.631Z,7.60
2018-09-24T04:27:46.928Z,7.60
2018-09-24T04:30:26.646Z,7.60
2018-09-24T04:33:06.157Z,7.60
2018-09-24T04:35:46.064Z,7.60
2018-09-24T04:38:25.729Z,7.60
2018-09-24T04:41:05.229Z,7.50
2018-09-24T04:43:44.942Z,7.50
2018-09-24T04:46:24.318Z,7.50
2018-09-24T04:49:03.661Z,7.50
2018-09-24T04:51:43.171Z,7.40
2018-09-24T04:54:22.523Z,7.40
2018-09-24T04:57:02.965Z,7.50
2018-09-24T04:59:42.842Z,7.50
2018-09-24T05:02:22.423Z,7.50
2018-09-24T05:05:02.037Z,7.50
2018-09-24T05:07:41.606Z,7.60
2018-09-24T05:10:21.585Z,7.70
2018-09-24T05:13:01.189Z,7.60
2018-09-24T05:15:40.532Z,7.60
2018-09-24T05:18:20.227Z,7.50
2018-09-24T05:20:59.781Z,7.50
2018-09-24T05:23:39.347Z,7.40
2018-09-24T05:26:19.875Z,7.40
2018-09-24T05:28:59.161Z,7.40
2018-09-24T05:31:38.529Z,7.50
2018-09-24T05:34:18.089Z,7.40
2018-09-24T05:36:57.975Z,7.40
2018-09-24T05:39:37.373Z,7.50
2018-09-24T05:42:16.808Z,7.40
2018-09-24T05:44:56.233Z,7.40
2018-09-24T05:47:35.887Z,7.40
2018-09-24T05:50:15.497Z,7.50
2018-09-24T05:52:55.523Z,7.50
2018-09-24T05:55:35.047Z,7.60
2018-09-24T05:58:14.679Z,7.70
2018-09-24T06:00:54.202Z,7.70
2018-09-24T06:03:33.648Z,7.70
2018-09-24T06:06:14.256Z,7.70
2018-09-24T06:08:53.904Z,7.70
2018-09-24T06:11:33.398Z,7.60
2018-09-24T06:14:13.337Z,7.70
2018-09-24T06:16:52.902Z,7.70
2018-09-24T06:19:32.553Z,7.80
2018-09-24T06:22:12.192Z,7.80
2018-09-24T06:24:51.617Z,7.90
2018-09-24T06:27:31.196Z,7.90
2018-09-24T06:30:10.903Z,8.00
2018-09-24T06:32:50.379Z,8.00
2018-09-24T06:35:30.047Z,8.10
2018-09-24T06:38:10.181Z,8.10
2018-09-24T06:40:50.204Z,8.10
2018-09-24T06:43:29.698Z,8.10
2018-09-24T06:46:09.788Z,8.10
2018-09-24T06:48:50.063Z,8.20
2018-09-24T06:51:29.470Z,8.30
2018-09-24T06:54:08.952Z,8.30
2018-09-24T06:56:48.353Z,8.40
2018-09-24T06:59:27.831Z,8.40
2018-09-24T07:02:07.207Z,8.60
2018-09-24T07:04:46.478Z,8.60
2018-09-24T07:07:26.667Z,8.70
2018-09-24T07:10:07.093Z,8.80
2018-09-24T07:12:46.668Z,8.90
2018-09-24T07:15:26.814Z,9.00
2018-09-24T07:18:06.147Z,9.00
2018-09-24T07:20:45.958Z,9.10
2018-09-24T07:23:25.468Z,9.10
2018-09-24T07:26:04.893Z,9.10
2018-09-24T07:28:44.432Z,9.20
2018-09-24T07:31:23.822Z,9.30
2018-09-24T07:34:03.334Z,9.40
2018-09-24T07:36:43.559Z,9.50
2018-09-24T07:39:23.075Z,9.50
2018-09-24T07:42:02.403Z,9.60
2018-09-24T07:44:42.323Z,9.60
2018-09-24T07:47:22.070Z,9.70
2018-09-24T07:50:01.638Z,9.90
2018-09-24T07:52:41.103Z,10.00
2018-09-24T07:55:21.053Z,10.00
2018-09-24T07:58:00.481Z,10.10
2018-09-24T08:00:40.092Z,10.20
2018-09-24T08:03:19.867Z,10.30
2018-09-24T08:05:59.417Z,10.30
2018-09-24T08:08:39.027Z,10.30
2018-09-24T08:11:18.737Z,10.40
2018-09-24T08:13:58.500Z,10.40
2018-09-24T08:16:38.826Z,10.40
2018-09-24T08:19:18.587Z,10.50
2018-09-24T08:21:58.860Z,10.60
2018-09-24T08:24:38.512Z,10.60
2018-09-24T08:27:17.971Z,10.70
2018-09-24T08:29:57.543Z,10.70
2018-09-24T08:32:36.931Z,10.80
2018-09-24T08:35:16.863Z,10.80
2018-09-24T08:37:56.456Z,10.90
2018-09-24T08:40:36.037Z,11.00
2018-09-24T08:43:15.514Z,11.10
2018-09-24T08:48:42.452Z,11.30
2018-09-24T08:51:22.147Z,11.40
2018-09-24T08:54:01.592Z,11.50
2018-09-24T08:56:42.185Z,11.60
2018-09-24T08:59:21.842Z,11.80
2018-09-24T09:02:01.316Z,11.80
2018-09-24T09:04:42.014Z,11.90
2018-09-24T09:07:21.771Z,11.90
2018-09-24T09:10:01.351Z,11.90
2018-09-24T09:12:41.468Z,12.00
2018-09-24T09:15:21.597Z,12.10
2018-09-24T09:18:01.546Z,12.20
2018-09-24T09:20:41.239Z,12.40
2018-09-24T09:23:21.046Z,12.50
2018-09-24T09:26:00.414Z,12.50
2018-09-24T09:28:40.321Z,12.50
2018-09-24T09:31:20.149Z,12.50
2018-09-24T09:34:00.163Z,12.50
2018-09-24T09:36:39.497Z,12.50
2018-09-24T09:39:19.075Z,12.40
2018-09-24T09:41:58.839Z,12.40
2018-09-24T09:44:39.254Z,12.40
2018-09-24T09:47:19.101Z,12.60
2018-09-24T09:49:58.931Z,12.50
2018-09-24T09:52:38.607Z,12.40
2018-09-24T09:55:18.061Z,12.40
2018-09-24T09:57:57.668Z,12.60
2018-09-24T10:00:37.952Z,12.60
2018-09-24T10:03:17.487Z,12.80
2018-09-24T10:05:56.938Z,12.90
2018-09-24T10:08:36.290Z,12.80
2018-09-24T10:11:15.759Z,12.80
2018-09-24T10:13:55.099Z,12.80
2018-09-24T10:16:34.758Z,12.80
2018-09-24T10:19:14.438Z,12.80
2018-09-24T10:21:54.342Z,12.70
2018-09-24T10:24:34.057Z,12.80
2018-09-24T10:27:13.669Z,12.80
2018-09-24T10:29:53.211Z,13.00
2018-09-24T10:32:33.443Z,13.10
2018-09-24T10:35:13.159Z,13.10
2018-09-24T10:37:52.848Z,13.30
2018-09-24T10:40:32.747Z,13.40
2018-09-24T10:43:12.628Z,13.50
2018-09-24T10:45:53.088Z,13.50
2018-09-24T10:48:33.089Z,13.50
2018-09-24T10:51:12.822Z,13.50
2018-09-24T10:53:52.584Z,13.60
2018-09-24T10:56:32.928Z,13.70
2018-09-24T10:59:12.844Z,13.80
2018-09-24T11:01:52.746Z,13.80
2018-09-24T11:04:32.754Z,13.60
2018-09-24T11:07:12.614Z,13.70
2018-09-24T11:09:52.517Z,13.80
2018-09-24T11:12:32.501Z,13.90
2018-09-24T11:15:12.311Z,13.80
2018-09-24T11:17:52.077Z,13.70
2018-09-24T11:20:31.173Z,13.60
2018-09-24T11:23:11.676Z,13.60
2018-09-24T11:25:51.288Z,13.60
2018-09-24T11:28:31.304Z,13.60
2018-09-24T11:31:10.825Z,13.70
2018-09-24T11:33:50.158Z,13.90
2018-09-24T11:36:29.985Z,14.00
2018-09-24T11:39:12.958Z,13.90
2018-09-24T11:41:52.419Z,14.00
2018-09-24T11:44:31.935Z,14.00
2018-09-24T11:47:11.830Z,14.00
2018-09-24T11:49:51.399Z,14.10
2018-09-24T11:52:30.910Z,14.20
2018-09-24T11:55:11.072Z,14.20
2018-09-24T11:57:50.715Z,14.20
2018-09-24T12:00:30.287Z,14.40
2018-09-24T12:03:09.548Z,14.40
2018-09-24T12:05:48.916Z,14.40
2018-09-24T12:08:28.418Z,14.40
2018-09-24T12:11:08.207Z,14.50
2018-09-24T12:13:47.651Z,14.60
2018-09-24T12:16:27.886Z,14.70
2018-09-24T12:19:07.522Z,14.70
2018-09-24T12:21:47.320Z,14.90
2018-09-24T12:24:27.276Z,15.00
2018-09-24T12:27:06.886Z,15.20
2018-09-24T12:29:46.632Z,15.30
2018-09-24T12:32:26.653Z,15.20
2018-09-24T12:35:06.445Z,15.30
2018-09-24T12:37:46.103Z,15.40
2018-09-24T12:40:26.128Z,15.50
2018-09-24T12:43:06.097Z,15.60
2018-09-24T12:45:45.995Z,15.60
2018-09-24T12:48:26.082Z,15.70
2018-09-24T12:51:05.566Z,15.60
2018-09-24T12:53:45.748Z,15.40
2018-09-24T12:56:25.837Z,15.30
2018-09-24T12:59:05.641Z,15.30
2018-09-24T13:01:45.275Z,15.50
2018-09-24T13:04:24.824Z,15.60
2018-09-24T13:07:04.523Z,15.50
2018-09-24T13:09:44.144Z,15.20
2018-09-24T13:12:23.973Z,15.00
2018-09-24T13:15:03.284Z,14.70
2018-09-24T13:17:43.716Z,15.00
2018-09-24T13:20:23.461Z,15.40
2018-09-24T13:23:03.328Z,15.70
2018-09-24T13:25:43.333Z,15.60
2018-09-24T13:28:23.226Z,15.70
2018-09-24T13:31:03.002Z,15.50
2018-09-24T13:33:43.201Z,15.30
2018-09-24T13:36:22.787Z,14.80
2018-09-24T13:39:02.153Z,14.20
2018-09-24T13:41:41.781Z,13.40
2018-09-24T13:44:21.166Z,13.00
2018-09-24T13:47:00.832Z,12.50
2018-09-24T13:49:40.826Z,12.10
2018-09-24T13:52:20.498Z,11.80
2018-09-24T13:55:00.719Z,11.70
2018-09-24T13:57:40.346Z,12.00
2018-09-24T14:00:20.042Z,12.40
2018-09-24T14:03:00.135Z,13.10
2018-09-24T14:05:39.704Z,13.10
2018-09-24T14:08:19.532Z,13.40
2018-09-24T14:10:59.440Z,13.90
2018-09-24T14:13:39.010Z,14.40
2018-09-24T14:16:18.296Z,14.90
2018-09-24T14:18:58.203Z,15.50
2018-09-24T14:21:38.294Z,15.70
2018-09-24T14:24:18.202Z,16.10
2018-09-24T14:26:58.028Z,16.40
2018-09-24T14:29:38.624Z,16.30
2018-09-24T14:32:18.088Z,16.00
2018-09-24T14:34:58.693Z,15.90
2018-09-24T14:37:38.358Z,15.50
2018-09-24T14:40:17.896Z,15.30
2018-09-24T14:42:57.132Z,15.00
2018-09-24T14:45:36.912Z,14.80
2018-09-24T14:48:16.463Z,14.40
2018-09-24T14:50:56.407Z,14.30
2018-09-24T14:53:36.781Z,14.00
2018-09-24T14:56:16.882Z,13.90
2018-09-24T14:58:56.562Z,13.90
2018-09-24T15:01:36.562Z,14.00
2018-09-24T15:04:16.083Z,14.30
2018-09-24T15:06:55.697Z,14.60
2018-09-24T15:09:35.492Z,14.50
2018-09-24T15:12:15.049Z,14.40
2018-09-24T15:14:55.411Z,14.10
2018-09-24T15:17:34.899Z,14.00
2018-09-24T15:20:14.403Z,14.00
2018-09-24T15:22:54.318Z,14.40
2018-09-24T15:25:34.245Z,14.90
2018-09-24T15:28:14.068Z,15.30
2018-09-24T15:30:54.072Z,15.70
2018-09-24T15:33:34.292Z,15.90
2018-09-24T15:36:13.941Z,16.00
2018-09-24T15:38:53.632Z,15.80
2018-09-24T15:41:33.421Z,15.40
2018-09-24T15:44:13.056Z,14.90
2018-09-24T15:46:53.027Z,14.70
2018-09-24T15:49:37.828Z,14.40
2018-09-24T15:52:17.724Z,14.00
2018-09-24T15:54:57.765Z,13.90
2018-09-24T15:57:37.634Z,13.70
2018-09-24T16:00:17.160Z,13.60
2018-09-24T16:02:57.327Z,13.30
2018-09-24T16:05:36.957Z,13.20
2018-09-24T16:08:16.298Z,13.10
2018-09-24T16:10:56.373Z,13.00
2018-09-24T16:13:36.602Z,12.90
2018-09-24T16:16:16.446Z,12.80
2018-09-24T16:18:56.227Z,12.70
2018-09-24T16:21:36.676Z,12.60
2018-09-24T16:24:16.084Z,12.50
2018-09-24T16:26:55.972Z,12.50
2018-09-24T16:29:35.948Z,12.50
2018-09-24T16:32:15.955Z,12.50
2018-09-24T16:34:55.794Z,12.50
2018-09-24T16:37:35.798Z,12.40
2018-09-24T16:40:15.707Z,12.30
2018-09-24T16:42:55.989Z,12.30
2018-09-24T16:45:36.017Z,12.20
2018-09-24T16:48:15.602Z,12.10
2018-09-24T16:50:55.638Z,12.00
2018-09-24T16:53:35.642Z,11.90
2018-09-24T16:56:15.428Z,11.90
2018-09-24T16:58:55.756Z,11.90
2018-09-24T17:01:35.403Z,11.60
2018-09-24T17:04:16.446Z,11.50
2018-09-24T17:06:56.452Z,11.30
2018-09-24T17:09:36.157Z,11.10
2018-09-24T17:12:15.760Z,10.90
2018-09-24T17:14:57.156Z,10.80
2018-09-24T17:17:36.671Z,10.60
2018-09-24T17:20:17.082Z,10.40
2018-09-24T17:22:57.204Z,10.20
2018-09-24T17:25:36.887Z,10.00
2018-09-24T17:28:16.946Z,9.80
2018-09-24T17:30:57.088Z,9.80
2018-09-24T17:33:36.952Z,9.70
2018-09-24T17:36:16.788Z,9.60
2018-09-24T17:38:56.294Z,9.60
2018-09-24T17:41:35.844Z,9.50
2018-09-24T17:44:15.661Z,9.50
2018-09-24T17:46:55.434Z,9.30
2018-09-24T17:49:35.631Z,9.30
2018-09-24T17:52:15.497Z,9.30
2018-09-24T17:54:56.217Z,9.30
2018-09-24T17:57:36.387Z,9.40
2018-09-24T18:00:17.377Z,9.50
2018-09-24T18:02:57.137Z,9.60
2018-09-24T18:05:36.890Z,9.60
2018-09-24T18:08:17.233Z,9.50
2018-09-24T18:10:57.112Z,9.50
2018-09-24T18:13:37.092Z,9.50
2018-09-24T18:16:16.857Z,9.40
2018-09-24T18:18:56.819Z,9.40
2018-09-24T18:21:36.981Z,9.30
2018-09-24T18:24:16.958Z,9.30
2018-09-24T18:26:56.812Z,9.20
2018-09-24T18:29:36.868Z,9.10
2018-09-24T18:32:17.339Z,9.00
2018-09-24T18:34:57.174Z,8.80
2018-09-24T18:37:36.755Z,8.80
2018-09-24T18:40:16.395Z,8.80
2018-09-24T18:42:56.314Z,8.70
2018-09-24T18:45:36.573Z,8.60
2018-09-24T18:48:16.334Z,8.50
2018-09-24T18:50:56.283Z,8.30
2018-09-24T18:53:36.193Z,8.30
2018-09-24T18:56:16.514Z,8.20
2018-09-24T18:58:57.231Z,8.10
2018-09-24T19:01:37.649Z,8.00
2018-09-24T19:04:17.379Z,8.10
2018-09-24T19:06:57.056Z,8.10
2018-09-24T19:09:36.815Z,8.00
2018-09-24T19:12:16.514Z,7.90
2018-09-24T19:14:56.157Z,8.00
2018-09-24T19:17:35.844Z,8.00
2018-09-24T19:20:15.476Z,8.10
2018-09-24T19:22:55.318Z,7.90
2018-09-24T19:25:35.836Z,8.00
2018-09-24T19:28:15.487Z,7.90
2018-09-24T19:30:55.239Z,8.00
2018-09-24T19:33:35.855Z,7.90
2018-09-24T19:36:15.659Z,7.90
2018-09-24T19:38:55.391Z,7.80
2018-09-24T19:41:35.683Z,7.80
2018-09-24T19:44:15.399Z,7.70
2018-09-24T19:47:02.848Z,7.70
2018-09-24T19:49:43.297Z,7.60
2018-09-24T19:52:23.126Z,7.60
2018-09-24T19:55:02.964Z,7.40
2018-09-24T19:57:42.745Z,7.40
2018-09-24T20:00:22.727Z,7.30
2018-09-24T20:03:02.812Z,7.20
2018-09-24T20:05:42.908Z,7.20
2018-09-24T20:08:22.533Z,7.10
2018-09-24T20:11:02.528Z,7.20
2018-09-24T20:13:42.376Z,7.20
2018-09-24T20:16:23.962Z,7.20
2018-09-24T20:19:04.516Z,7.20
2018-09-24T20:21:44.232Z,7.30
2018-09-24T20:24:24.693Z,7.30
2018-09-24T20:27:05.118Z,7.40
2018-09-24T20:29:45.402Z,7.30
2018-09-24T20:32:25.399Z,7.40
2018-09-24T20:35:05.466Z,7.30
2018-09-24T20:37:45.043Z,7.20
2018-09-24T20:40:24.933Z,7.20
2018-09-24T20:43:05.127Z,7.20
2018-09-24T20:45:44.870Z,7.20
2018-09-24T20:48:24.517Z,7.10
2018-09-24T20:51:04.112Z,7.00
2018-09-24T20:53:43.864Z,6.90
2018-09-24T20:56:23.575Z,6.80
2018-09-24T20:59:03.623Z,6.70
2018-09-24T21:01:43.291Z,6.70
2018-09-24T21:04:23.453Z,6.70
2018-09-24T21:07:03.682Z,6.70
2018-09-24T21:09:43.531Z,6.70
2018-09-24T21:12:23.382Z,6.60
2018-09-24T21:15:03.278Z,6.60
2018-09-24T21:17:43.211Z,6.60
2018-09-24T21:20:22.847Z,6.50
2018-09-24T21:23:03.405Z,6.50
2018-09-24T21:25:43.272Z,6.50
2018-09-24T21:28:23.140Z,6.60
2018-09-24T21:31:04.271Z,6.60
2018-09-24T21:33:44.146Z,6.60
2018-09-24T21:36:24.034Z,6.60
2018-09-24T21:39:03.570Z,6.60
2018-09-24T21:41:43.933Z,6.60
2018-09-24T21:44:23.737Z,6.60
2018-09-24T21:47:03.666Z,6.60
2018-09-24T21:49:43.941Z,6.60
2018-09-24T21:52:23.782Z,6.60
2018-09-24T21:55:03.677Z,6.60
2018-09-24T21:57:43.522Z,6.50
2018-09-24T22:00:23.488Z,6.40
2018-09-24T22:03:03.430Z,6.30
2018-09-24T22:05:50.181Z,6.30
2018-09-24T22:08:29.791Z,6.20
2018-09-24T22:11:10.522Z,6.20
2018-09-24T22:13:50.122Z,6.10
2018-09-24T22:16:29.946Z,6.20
2018-09-24T22:19:10.081Z,6.20
2018-09-24T22:21:49.986Z,6.20
2018-09-24T22:24:29.493Z,6.10
2018-09-24T22:27:09.079Z,6.10
2018-09-24T22:29:48.771Z,6.10
2018-09-24T22:32:28.435Z,6.00
2018-09-24T22:35:07.971Z,6.00
2018-09-24T22:37:47.901Z,6.00
2018-09-24T22:40:27.324Z,6.00
2018-09-24T22:43:06.972Z,6.00
2018-09-24T22:45:46.451Z,6.00
2018-09-24T22:48:25.783Z,6.00
2018-09-24T22:51:05.971Z,6.10
2018-09-24T22:53:45.734Z,6.10
2018-09-24T22:56:25.420Z,6.00
2018-09-24T22:59:05.255Z,5.90
2018-09-24T23:01:44.987Z,5.90
2018-09-24T23:04:25.121Z,5.90
2018-09-24T23:07:06.013Z,5.90
2018-09-24T23:09:46.332Z,5.90
2018-09-24T23:12:26.320Z,5.90
2018-09-24T23:15:05.928Z,5.80
2018-09-24T23:17:46.052Z,5.80
2018-09-24T23:20:25.826Z,5.70
2018-09-24T23:23:05.783Z,5.60
2018-09-24T23:25:45.730Z,5.60
2018-09-24T23:28:25.311Z,5.60
2018-09-24T23:31:05.873Z,5.60
2018-09-24T23:33:45.575Z,5.50
2018-09-24T23:36:25.303Z,5.50
2018-09-24T23:39:05.573Z,5.50
2018-09-24T23:41:45.304Z,5.50
2018-09-24T23:44:25.722Z,5.60
2018-09-24T23:47:05.616Z,5.60
2018-09-24T23:49:45.365Z,5.60
2018-09-24T23:52:25.265Z,5.70
2018-09-24T23:55:06.173Z,5.70
2018-09-24T23:57:46.020Z,5.70
